sensor_id;sensor_type;location;lat;lon;timestamp;P1;durP1;ratioP1;P2;durP2;ratioP2
56045;SDS011;41913;51.030;3.706;2023-02-08T00:00:34;3.80;;;3.60;;
56045;SDS011;41913;51.030;3.706;2023-02-08T00:03:04;3.42;;;3.25;;
56045;SDS011;41913;51.030;3.706;2023-02-08T00:05:32;3.78;;;3.53;;
56045;SDS011;41913;51.030;3.706;2023-02-08T00:07:58;3.78;;;3.55;;
56045;SDS011;41913;51.030;3.706;2023-02-08T00:10:24;3.35;;;3.05;;
56045;SDS011;41913;51.030;3.706;2023-02-08T00:12:50;3.47;;;3.28;;
56045;SDS011;41913;51.030;3.706;2023-02-08T00:15:19;4.05;;;3.75;;
56045;SDS011;41913;51.030;3.706;2023-02-08T00:17:45;3.35;;;3.17;;
56045;SDS011;41913;51.030;3.706;2023-02-08T00:20:10;3.70;;;3.40;;
56045;SDS011;41913;51.030;3.706;2023-02-08T00:22:37;4.45;;;4.05;;
56045;SDS011;41913;51.030;3.706;2023-02-08T00:25:03;2.85;;;2.75;;
56045;SDS011;41913;51.030;3.706;2023-02-08T00:27:30;3.75;;;3.45;;
56045;SDS011;41913;51.030;3.706;2023-02-08T00:29:55;3.88;;;3.58;;
56045;SDS011;41913;51.030;3.706;2023-02-08T00:32:28;3.40;;;3.20;;
56045;SDS011;41913;51.030;3.706;2023-02-08T00:35:00;3.70;;;3.50;;
56045;SDS011;41913;51.030;3.706;2023-02-08T00:37:25;3.70;;;3.40;;
56045;SDS011;41913;51.030;3.706;2023-02-08T00:39:51;3.17;;;3.05;;
56045;SDS011;41913;51.030;3.706;2023-02-08T00:42:17;4.18;;;3.88;;
56045;SDS011;41913;51.030;3.706;2023-02-08T00:44:42;3.78;;;3.58;;
56045;SDS011;41913;51.030;3.706;2023-02-08T00:47:09;4.25;;;3.95;;
56045;SDS011;41913;51.030;3.706;2023-02-08T00:49:36;3.63;;;3.33;;
56045;SDS011;41913;51.030;3.706;2023-02-08T00:52:01;4.00;;;3.70;;
56045;SDS011;41913;51.030;3.706;2023-02-08T00:54:27;3.50;;;3.22;;
56045;SDS011;41913;51.030;3.706;2023-02-08T00:56:52;3.47;;;3.28;;
56045;SDS011;41913;51.030;3.706;2023-02-08T00:59:18;4.00;;;3.80;;
56045;SDS011;41913;51.030;3.706;2023-02-08T01:01:46;3.58;;;3.38;;
56045;SDS011;41913;51.030;3.706;2023-02-08T01:04:11;2.97;;;2.78;;
56045;SDS011;41913;51.030;3.706;2023-02-08T01:06:37;3.78;;;3.58;;
56045;SDS011;41913;51.030;3.706;2023-02-08T01:09:03;4.00;;;3.70;;
56045;SDS011;41913;51.030;3.706;2023-02-08T01:11:29;3.35;;;3.05;;
56045;SDS011;41913;51.030;3.706;2023-02-08T01:13:55;3.53;;;3.22;;
56045;SDS011;41913;51.030;3.706;2023-02-08T01:16:25;4.13;;;3.83;;
56045;SDS011;41913;51.030;3.706;2023-02-08T01:18:53;3.40;;;3.20;;
56045;SDS011;41913;51.030;3.706;2023-02-08T01:21:23;3.95;;;3.65;;
56045;SDS011;41913;51.030;3.706;2023-02-08T01:23:50;4.10;;;3.90;;
56045;SDS011;41913;51.030;3.706;2023-02-08T01:26:17;3.35;;;3.15;;
56045;SDS011;41913;51.030;3.706;2023-02-08T01:28:44;4.38;;;4.07;;
56045;SDS011;41913;51.030;3.706;2023-02-08T01:31:15;4.03;;;3.72;;
56045;SDS011;41913;51.030;3.706;2023-02-08T01:33:45;4.22;;;3.92;;
56045;SDS011;41913;51.030;3.706;2023-02-08T01:36:11;3.95;;;3.65;;
56045;SDS011;41913;51.030;3.706;2023-02-08T01:38:43;4.38;;;3.97;;
56045;SDS011;41913;51.030;3.706;2023-02-08T01:41:25;3.53;;;3.25;;
56045;SDS011;41913;51.030;3.706;2023-02-08T01:44:07;4.28;;;3.97;;
56045;SDS011;41913;51.030;3.706;2023-02-08T01:46:53;3.35;;;3.15;;
56045;SDS011;41913;51.030;3.706;2023-02-08T01:49:29;3.78;;;3.55;;
56045;SDS011;41913;51.030;3.706;2023-02-08T01:54:34;3.33;;;3.00;;
56045;SDS011;41913;51.030;3.706;2023-02-08T01:57:04;3.65;;;3.45;;
56045;SDS011;41913;51.030;3.706;2023-02-08T01:59:36;3.63;;;3.42;;
56045;SDS011;41913;51.030;3.706;2023-02-08T02:02:07;4.38;;;4.07;;
56045;SDS011;41913;51.030;3.706;2023-02-08T02:04:42;3.13;;;2.92;;
56045;SDS011;41913;51.030;3.706;2023-02-08T02:07:08;3.20;;;3.03;;
56045;SDS011;41913;51.030;3.706;2023-02-08T02:12:25;3.83;;;3.53;;
56045;SDS011;41913;51.030;3.706;2023-02-08T02:14:51;3.72;;;3.38;;
56045;SDS011;41913;51.030;3.706;2023-02-08T02:17:18;4.10;;;3.80;;
56045;SDS011;41913;51.030;3.706;2023-02-08T02:19:56;3.47;;;3.28;;
56045;SDS011;41913;51.030;3.706;2023-02-08T02:28:56;3.22;;;3.10;;
56045;SDS011;41913;51.030;3.706;2023-02-08T02:32:07;3.85;;;3.60;;
56045;SDS011;41913;51.030;3.706;2023-02-08T02:39:55;3.20;;;3.03;;
56045;SDS011;41913;51.030;3.706;2023-02-08T02:45:45;3.40;;;3.20;;
56045;SDS011;41913;51.030;3.706;2023-02-08T02:48:52;3.13;;;2.92;;
56045;SDS011;41913;51.030;3.706;2023-02-08T02:54:17;3.85;;;3.58;;
56045;SDS011;41913;51.030;3.706;2023-02-08T02:59:17;3.78;;;3.47;;
56045;SDS011;41913;51.030;3.706;2023-02-08T03:01:44;3.20;;;3.10;;
56045;SDS011;41913;51.030;3.706;2023-02-08T03:04:18;3.47;;;3.25;;
56045;SDS011;41913;51.030;3.706;2023-02-08T03:21:00;3.58;;;3.35;;
56045;SDS011;41913;51.030;3.706;2023-02-08T03:31:52;3.15;;;2.90;;
56045;SDS011;41913;51.030;3.706;2023-02-08T03:34:50;4.22;;;3.88;;
56045;SDS011;41913;51.030;3.706;2023-02-08T03:37:22;3.40;;;3.20;;
56045;SDS011;41913;51.030;3.706;2023-02-08T03:39:52;4.10;;;3.70;;
56045;SDS011;41913;51.030;3.706;2023-02-08T03:42:24;3.58;;;3.38;;
56045;SDS011;41913;51.030;3.706;2023-02-08T03:44:57;3.63;;;3.38;;
56045;SDS011;41913;51.030;3.706;2023-02-08T03:47:33;4.03;;;3.83;;
56045;SDS011;41913;51.030;3.706;2023-02-08T03:50:04;3.30;;;3.15;;
56045;SDS011;41913;51.030;3.706;2023-02-08T03:52:34;3.75;;;3.50;;
56045;SDS011;41913;51.030;3.706;2023-02-08T03:55:02;3.97;;;3.70;;
56045;SDS011;41913;51.030;3.706;2023-02-08T03:57:34;3.83;;;3.63;;
56045;SDS011;41913;51.030;3.706;2023-02-08T04:00:11;4.18;;;3.85;;
56045;SDS011;41913;51.030;3.706;2023-02-08T04:03:12;3.95;;;3.65;;
56045;SDS011;41913;51.030;3.706;2023-02-08T04:05:34;3.88;;;3.67;;
56045;SDS011;41913;51.030;3.706;2023-02-08T04:08:02;4.30;;;4.00;;
56045;SDS011;41913;51.030;3.706;2023-02-08T04:10:30;3.47;;;3.33;;
56045;SDS011;41913;51.030;3.706;2023-02-08T04:12:55;4.10;;;3.80;;
56045;SDS011;41913;51.030;3.706;2023-02-08T04:15:22;3.58;;;3.38;;
56045;SDS011;41913;51.030;3.706;2023-02-08T04:17:49;3.45;;;3.25;;
56045;SDS011;41913;51.030;3.706;2023-02-08T04:20:14;3.88;;;3.63;;
56045;SDS011;41913;51.030;3.706;2023-02-08T04:22:40;3.75;;;3.45;;
56045;SDS011;41913;51.030;3.706;2023-02-08T04:25:08;4.07;;;3.85;;
56045;SDS011;41913;51.030;3.706;2023-02-08T04:27:39;3.58;;;3.33;;
56045;SDS011;41913;51.030;3.706;2023-02-08T04:30:05;3.60;;;3.40;;
56045;SDS011;41913;51.030;3.706;2023-02-08T04:35:00;4.25;;;3.95;;
56045;SDS011;41913;51.030;3.706;2023-02-08T04:37:31;4.20;;;3.90;;
56045;SDS011;41913;51.030;3.706;2023-02-08T04:39:58;4.03;;;3.72;;
56045;SDS011;41913;51.030;3.706;2023-02-08T04:42:24;3.88;;;3.58;;
56045;SDS011;41913;51.030;3.706;2023-02-08T04:44:50;3.78;;;3.58;;
56045;SDS011;41913;51.030;3.706;2023-02-08T04:47:17;4.50;;;4.20;;
56045;SDS011;41913;51.030;3.706;2023-02-08T04:49:42;3.92;;;3.63;;
56045;SDS011;41913;51.030;3.706;2023-02-08T04:52:11;4.53;;;4.13;;
56045;SDS011;41913;51.030;3.706;2023-02-08T04:54:37;4.20;;;3.88;;
56045;SDS011;41913;51.030;3.706;2023-02-08T04:57:02;5.07;;;4.68;;
56045;SDS011;41913;51.030;3.706;2023-02-08T04:59:29;3.67;;;3.38;;
56045;SDS011;41913;51.030;3.706;2023-02-08T05:01:54;4.38;;;4.07;;
56045;SDS011;41913;51.030;3.706;2023-02-08T05:04:22;4.47;;;4.10;;
56045;SDS011;41913;51.030;3.706;2023-02-08T05:06:48;4.40;;;4.10;;
56045;SDS011;41913;51.030;3.706;2023-02-08T05:09:15;4.75;;;4.32;;
56045;SDS011;41913;51.030;3.706;2023-02-08T05:11:41;4.18;;;3.80;;
56045;SDS011;41913;51.030;3.706;2023-02-08T05:14:07;3.95;;;3.65;;
56045;SDS011;41913;51.030;3.706;2023-02-08T05:16:32;3.60;;;3.40;;
56045;SDS011;41913;51.030;3.706;2023-02-08T05:18:58;4.55;;;4.15;;
56045;SDS011;41913;51.030;3.706;2023-02-08T05:21:24;4.60;;;4.28;;
56045;SDS011;41913;51.030;3.706;2023-02-08T05:23:49;5.22;;;4.82;;
56045;SDS011;41913;51.030;3.706;2023-02-08T05:26:15;4.85;;;4.45;;
56045;SDS011;41913;51.030;3.706;2023-02-08T05:28:41;4.20;;;3.90;;
56045;SDS011;41913;51.030;3.706;2023-02-08T05:31:11;4.30;;;4.00;;
56045;SDS011;41913;51.030;3.706;2023-02-08T05:33:48;4.47;;;4.18;;
56045;SDS011;41913;51.030;3.706;2023-02-08T05:36:15;5.20;;;4.72;;
56045;SDS011;41913;51.030;3.706;2023-02-08T05:38:41;4.45;;;4.15;;
56045;SDS011;41913;51.030;3.706;2023-02-08T05:41:06;4.95;;;4.53;;
56045;SDS011;41913;51.030;3.706;2023-02-08T05:43:33;5.13;;;4.63;;
56045;SDS011;41913;51.030;3.706;2023-02-08T05:45:58;4.70;;;4.35;;
56045;SDS011;41913;51.030;3.706;2023-02-08T05:48:24;4.50;;;4.30;;
56045;SDS011;41913;51.030;3.706;2023-02-08T05:50:50;5.05;;;4.65;;
56045;SDS011;41913;51.030;3.706;2023-02-08T05:53:15;5.68;;;5.25;;
56045;SDS011;41913;51.030;3.706;2023-02-08T05:55:44;4.32;;;4.03;;
56045;SDS011;41913;51.030;3.706;2023-02-08T05:58:12;5.40;;;4.90;;
56045;SDS011;41913;51.030;3.706;2023-02-08T06:00:39;4.93;;;4.32;;
56045;SDS011;41913;51.030;3.706;2023-02-08T06:03:05;4.97;;;4.60;;
56045;SDS011;41913;51.030;3.706;2023-02-08T06:05:32;5.15;;;4.75;;
56045;SDS011;41913;51.030;3.706;2023-02-08T06:07:58;4.63;;;4.25;;
56045;SDS011;41913;51.030;3.706;2023-02-08T06:10:24;4.20;;;3.90;;
56045;SDS011;41913;51.030;3.706;2023-02-08T06:12:49;5.40;;;4.90;;
56045;SDS011;41913;51.030;3.706;2023-02-08T06:15:15;4.88;;;4.47;;
56045;SDS011;41913;51.030;3.706;2023-02-08T06:17:40;4.70;;;4.40;;
56045;SDS011;41913;51.030;3.706;2023-02-08T06:20:06;4.78;;;4.38;;
56045;SDS011;41913;51.030;3.706;2023-02-08T06:22:33;5.28;;;4.68;;
56045;SDS011;41913;51.030;3.706;2023-02-08T06:24:59;6.32;;;5.68;;
56045;SDS011;41913;51.030;3.706;2023-02-08T06:27:24;5.20;;;4.72;;
56045;SDS011;41913;51.030;3.706;2023-02-08T06:29:50;4.90;;;4.50;;
56045;SDS011;41913;51.030;3.706;2023-02-08T06:32:16;5.35;;;4.85;;
56045;SDS011;41913;51.030;3.706;2023-02-08T06:34:41;5.85;;;5.00;;
56045;SDS011;41913;51.030;3.706;2023-02-08T06:37:07;5.63;;;5.13;;
56045;SDS011;41913;51.030;3.706;2023-02-08T06:39:33;6.70;;;5.60;;
56045;SDS011;41913;51.030;3.706;2023-02-08T06:41:58;11.32;;;6.80;;
56045;SDS011;41913;51.030;3.706;2023-02-08T06:44:24;30.08;;;8.10;;
56045;SDS011;41913;51.030;3.706;2023-02-08T06:46:52;18.65;;;6.90;;
56045;SDS011;41913;51.030;3.706;2023-02-08T06:49:19;11.15;;;5.45;;
56045;SDS011;41913;51.030;3.706;2023-02-08T06:51:46;10.48;;;5.75;;
56045;SDS011;41913;51.030;3.706;2023-02-08T06:54:12;9.70;;;5.10;;
56045;SDS011;41913;51.030;3.706;2023-02-08T06:56:39;7.47;;;4.55;;
56045;SDS011;41913;51.030;3.706;2023-02-08T06:59:08;6.32;;;4.70;;
56045;SDS011;41913;51.030;3.706;2023-02-08T07:01:35;6.57;;;4.00;;
56045;SDS011;41913;51.030;3.706;2023-02-08T07:04:01;3.90;;;3.58;;
56045;SDS011;41913;51.030;3.706;2023-02-08T07:06:26;4.78;;;4.32;;
56045;SDS011;41913;51.030;3.706;2023-02-08T07:08:52;4.78;;;4.38;;
56045;SDS011;41913;51.030;3.706;2023-02-08T07:11:18;4.63;;;4.22;;
56045;SDS011;41913;51.030;3.706;2023-02-08T07:13:46;7.90;;;5.22;;
56045;SDS011;41913;51.030;3.706;2023-02-08T07:16:16;5.90;;;4.90;;
56045;SDS011;41913;51.030;3.706;2023-02-08T07:18:44;5.55;;;4.85;;
56045;SDS011;41913;51.030;3.706;2023-02-08T07:21:11;9.40;;;5.72;;
56045;SDS011;41913;51.030;3.706;2023-02-08T07:23:37;8.52;;;6.15;;
56045;SDS011;41913;51.030;3.706;2023-02-08T07:26:06;10.05;;;6.78;;
56045;SDS011;41913;51.030;3.706;2023-02-08T07:28:34;10.43;;;7.30;;
56045;SDS011;41913;51.030;3.706;2023-02-08T07:31:04;10.38;;;7.13;;
56045;SDS011;41913;51.030;3.706;2023-02-08T07:33:37;11.20;;;7.53;;
56045;SDS011;41913;51.030;3.706;2023-02-08T07:36:03;10.45;;;7.43;;
56045;SDS011;41913;51.030;3.706;2023-02-08T07:38:30;13.48;;;7.90;;
56045;SDS011;41913;51.030;3.706;2023-02-08T07:41:07;12.43;;;7.72;;
56045;SDS011;41913;51.030;3.706;2023-02-08T07:43:37;10.60;;;7.50;;
56045;SDS011;41913;51.030;3.706;2023-02-08T07:46:08;8.82;;;7.55;;
56045;SDS011;41913;51.030;3.706;2023-02-08T07:48:35;9.63;;;7.65;;
56045;SDS011;41913;51.030;3.706;2023-02-08T07:51:01;11.48;;;8.45;;
56045;SDS011;41913;51.030;3.706;2023-02-08T07:53:28;10.18;;;9.02;;
56045;SDS011;41913;51.030;3.706;2023-02-08T07:55:55;12.45;;;8.18;;
56045;SDS011;41913;51.030;3.706;2023-02-08T07:58:21;16.80;;;8.43;;
56045;SDS011;41913;51.030;3.706;2023-02-08T08:00:47;15.35;;;9.35;;
56045;SDS011;41913;51.030;3.706;2023-02-08T08:03:13;13.85;;;9.43;;
56045;SDS011;41913;51.030;3.706;2023-02-08T08:05:40;13.35;;;9.02;;
56045;SDS011;41913;51.030;3.706;2023-02-08T08:08:06;15.25;;;8.85;;
56045;SDS011;41913;51.030;3.706;2023-02-08T08:10:33;12.52;;;9.45;;
56045;SDS011;41913;51.030;3.706;2023-02-08T08:12:59;11.65;;;8.07;;
56045;SDS011;41913;51.030;3.706;2023-02-08T08:15:24;13.07;;;9.05;;
56045;SDS011;41913;51.030;3.706;2023-02-08T08:17:51;12.95;;;8.45;;
56045;SDS011;41913;51.030;3.706;2023-02-08T08:20:17;12.50;;;8.65;;
56045;SDS011;41913;51.030;3.706;2023-02-08T08:22:43;12.38;;;8.55;;
56045;SDS011;41913;51.030;3.706;2023-02-08T08:25:09;10.68;;;8.73;;
56045;SDS011;41913;51.030;3.706;2023-02-08T08:27:36;10.95;;;8.23;;
56045;SDS011;41913;51.030;3.706;2023-02-08T08:30:05;11.98;;;8.15;;
56045;SDS011;41913;51.030;3.706;2023-02-08T08:32:32;9.68;;;8.27;;
56045;SDS011;41913;51.030;3.706;2023-02-08T08:34:57;8.98;;;7.85;;
56045;SDS011;41913;51.030;3.706;2023-02-08T08:37:27;14.93;;;8.77;;
56045;SDS011;41913;51.030;3.706;2023-02-08T08:39:54;13.68;;;8.80;;
56045;SDS011;41913;51.030;3.706;2023-02-08T08:42:21;18.33;;;8.10;;
56045;SDS011;41913;51.030;3.706;2023-02-08T08:44:46;22.20;;;8.38;;
56045;SDS011;41913;51.030;3.706;2023-02-08T08:47:12;11.90;;;8.27;;
56045;SDS011;41913;51.030;3.706;2023-02-08T08:49:38;12.27;;;8.80;;
56045;SDS011;41913;51.030;3.706;2023-02-08T08:52:08;11.57;;;7.43;;
56045;SDS011;41913;51.030;3.706;2023-02-08T08:54:36;10.88;;;8.52;;
56045;SDS011;41913;51.030;3.706;2023-02-08T08:57:02;8.55;;;7.13;;
56045;SDS011;41913;51.030;3.706;2023-02-08T08:59:28;7.75;;;6.95;;
56045;SDS011;41913;51.030;3.706;2023-02-08T09:01:54;9.35;;;7.13;;
56045;SDS011;41913;51.030;3.706;2023-02-08T09:04:19;10.85;;;6.55;;
56045;SDS011;41913;51.030;3.706;2023-02-08T09:06:47;7.00;;;6.25;;
56045;SDS011;41913;51.030;3.706;2023-02-08T09:09:15;8.23;;;5.97;;
56045;SDS011;41913;51.030;3.706;2023-02-08T09:11:43;7.35;;;6.25;;
56045;SDS011;41913;51.030;3.706;2023-02-08T09:14:09;5.68;;;5.18;;
56045;SDS011;41913;51.030;3.706;2023-02-08T09:16:36;7.65;;;5.88;;
56045;SDS011;41913;51.030;3.706;2023-02-08T09:19:03;5.78;;;5.28;;
56045;SDS011;41913;51.030;3.706;2023-02-08T09:21:32;6.57;;;5.97;;
56045;SDS011;41913;51.030;3.706;2023-02-08T09:23:59;5.53;;;4.90;;
56045;SDS011;41913;51.030;3.706;2023-02-08T09:26:25;6.80;;;5.38;;
56045;SDS011;41913;51.030;3.706;2023-02-08T09:28:53;7.78;;;5.53;;
56045;SDS011;41913;51.030;3.706;2023-02-08T09:31:19;6.07;;;5.47;;
56045;SDS011;41913;51.030;3.706;2023-02-08T09:33:47;5.63;;;5.10;;
56045;SDS011;41913;51.030;3.706;2023-02-08T09:36:14;7.45;;;4.88;;
56045;SDS011;41913;51.030;3.706;2023-02-08T09:38:40;10.82;;;5.30;;
56045;SDS011;41913;51.030;3.706;2023-02-08T09:47:08;4.50;;;4.18;;
56045;SDS011;41913;51.030;3.706;2023-02-08T09:49:57;5.40;;;4.95;;
56045;SDS011;41913;51.030;3.706;2023-02-08T09:52:34;5.57;;;4.82;;
56045;SDS011;41913;51.030;3.706;2023-02-08T09:55:25;5.28;;;4.88;;
56045;SDS011;41913;51.030;3.706;2023-02-08T09:58:42;5.93;;;5.35;;
56045;SDS011;41913;51.030;3.706;2023-02-08T10:00:48;4.80;;;4.40;;
56045;SDS011;41913;51.030;3.706;2023-02-08T10:05:54;17.40;;;6.63;;
56045;SDS011;41913;51.030;3.706;2023-02-08T10:08:21;11.68;;;6.57;;
56045;SDS011;41913;51.030;3.706;2023-02-08T10:10:54;9.15;;;5.93;;
56045;SDS011;41913;51.030;3.706;2023-02-08T10:13:50;11.77;;;6.68;;
56045;SDS011;41913;51.030;3.706;2023-02-08T10:27:46;7.28;;;5.97;;
56045;SDS011;41913;51.030;3.706;2023-02-08T10:30:33;5.82;;;5.25;;
56045;SDS011;41913;51.030;3.706;2023-02-08T10:33:28;13.23;;;7.05;;
56045;SDS011;41913;51.030;3.706;2023-02-08T10:36:01;29.17;;;10.07;;
56045;SDS011;41913;51.030;3.706;2023-02-08T10:38:37;21.48;;;8.95;;
56045;SDS011;41913;51.030;3.706;2023-02-08T10:41:06;13.25;;;7.22;;
56045;SDS011;41913;51.030;3.706;2023-02-08T10:51:28;8.02;;;5.30;;
56045;SDS011;41913;51.030;3.706;2023-02-08T10:53:54;5.68;;;4.95;;
56045;SDS011;41913;51.030;3.706;2023-02-08T10:58:46;5.30;;;4.90;;
56045;SDS011;41913;51.030;3.706;2023-02-08T11:01:12;5.00;;;4.53;;
56045;SDS011;41913;51.030;3.706;2023-02-08T11:03:38;4.80;;;4.15;;
56045;SDS011;41913;51.030;3.706;2023-02-08T11:06:26;4.90;;;4.45;;
56045;SDS011;41913;51.030;3.706;2023-02-08T11:08:53;5.50;;;4.30;;
56045;SDS011;41913;51.030;3.706;2023-02-08T11:11:20;5.13;;;4.75;;
56045;SDS011;41913;51.030;3.706;2023-02-08T11:13:47;4.40;;;3.78;;
56045;SDS011;41913;51.030;3.706;2023-02-08T11:16:22;5.03;;;4.55;;
56045;SDS011;41913;51.030;3.706;2023-02-08T11:18:53;4.50;;;4.18;;
56045;SDS011;41913;51.030;3.706;2023-02-08T11:23:51;4.60;;;4.15;;
56045;SDS011;41913;51.030;3.706;2023-02-08T11:26:35;3.83;;;3.42;;
56045;SDS011;41913;51.030;3.706;2023-02-08T11:34:36;3.78;;;3.45;;
56045;SDS011;41913;51.030;3.706;2023-02-08T11:39:38;3.97;;;3.50;;
56045;SDS011;41913;51.030;3.706;2023-02-08T11:42:20;3.78;;;3.47;;
56045;SDS011;41913;51.030;3.706;2023-02-08T11:44:51;3.40;;;3.10;;
56045;SDS011;41913;51.030;3.706;2023-02-08T11:47:25;3.22;;;2.97;;
56045;SDS011;41913;51.030;3.706;2023-02-08T11:49:55;5.22;;;3.13;;
56045;SDS011;41913;51.030;3.706;2023-02-08T11:52:33;4.18;;;3.33;;
56045;SDS011;41913;51.030;3.706;2023-02-08T12:05:34;3.00;;;2.80;;
56045;SDS011;41913;51.030;3.706;2023-02-08T12:19:58;2.53;;;2.42;;
56045;SDS011;41913;51.030;3.706;2023-02-08T12:23:36;5.13;;;2.50;;
56045;SDS011;41913;51.030;3.706;2023-02-08T12:42:14;2.30;;;2.22;;
56045;SDS011;41913;51.030;3.706;2023-02-08T12:45:17;2.35;;;2.25;;
56045;SDS011;41913;51.030;3.706;2023-02-08T12:48:06;2.47;;;2.28;;
56045;SDS011;41913;51.030;3.706;2023-02-08T12:53:51;2.25;;;2.08;;
56045;SDS011;41913;51.030;3.706;2023-02-08T12:56:55;2.42;;;2.33;;
56045;SDS011;41913;51.030;3.706;2023-02-08T12:59:59;2.63;;;2.08;;
56045;SDS011;41913;51.030;3.706;2023-02-08T13:05:02;2.63;;;2.42;;
56045;SDS011;41913;51.030;3.706;2023-02-08T13:07:41;2.58;;;2.47;;
56045;SDS011;41913;51.030;3.706;2023-02-08T13:10:17;3.35;;;2.47;;
56045;SDS011;41913;51.030;3.706;2023-02-08T13:13:33;2.15;;;2.03;;
56045;SDS011;41913;51.030;3.706;2023-02-08T13:15:55;2.10;;;2.00;;
56045;SDS011;41913;51.030;3.706;2023-02-08T13:18:28;2.20;;;2.10;;
56045;SDS011;41913;51.030;3.706;2023-02-08T13:23:39;2.00;;;1.90;;
56045;SDS011;41913;51.030;3.706;2023-02-08T13:29:04;5.80;;;2.50;;
56045;SDS011;41913;51.030;3.706;2023-02-08T13:31:31;2.10;;;2.00;;
56045;SDS011;41913;51.030;3.706;2023-02-08T13:36:52;2.78;;;1.80;;
56045;SDS011;41913;51.030;3.706;2023-02-08T13:39:32;2.43;;;2.33;;
56045;SDS011;41913;51.030;3.706;2023-02-08T13:42:15;1.90;;;1.80;;
56045;SDS011;41913;51.030;3.706;2023-02-08T13:44:48;5.80;;;2.22;;
56045;SDS011;41913;51.030;3.706;2023-02-08T13:47:27;2.67;;;2.40;;
56045;SDS011;41913;51.030;3.706;2023-02-08T13:50:03;8.55;;;3.00;;
56045;SDS011;41913;51.030;3.706;2023-02-08T14:03:24;4.93;;;2.15;;
56045;SDS011;41913;51.030;3.706;2023-02-08T14:13:38;6.43;;;2.83;;
56045;SDS011;41913;51.030;3.706;2023-02-08T14:21:46;4.15;;;1.90;;
56045;SDS011;41913;51.030;3.706;2023-02-08T14:24:18;2.63;;;2.42;;
56045;SDS011;41913;51.030;3.706;2023-02-08T14:29:56;3.80;;;2.17;;
56045;SDS011;41913;51.030;3.706;2023-02-08T14:32:23;3.38;;;1.83;;
56045;SDS011;41913;51.030;3.706;2023-02-08T14:34:57;4.88;;;2.00;;
56045;SDS011;41913;51.030;3.706;2023-02-08T14:37:44;3.03;;;2.03;;
56045;SDS011;41913;51.030;3.706;2023-02-08T14:45:35;4.55;;;2.63;;
56045;SDS011;41913;51.030;3.706;2023-02-08T14:53:49;3.58;;;2.45;;
56045;SDS011;41913;51.030;3.706;2023-02-08T14:58:56;2.25;;;2.05;;
56045;SDS011;41913;51.030;3.706;2023-02-08T15:01:44;1.83;;;1.08;;
56045;SDS011;41913;51.030;3.706;2023-02-08T15:04:14;2.17;;;1.88;;
56045;SDS011;41913;51.030;3.706;2023-02-08T15:06:55;3.90;;;1.63;;
56045;SDS011;41913;51.030;3.706;2023-02-08T15:09:29;5.15;;;2.13;;
56045;SDS011;41913;51.030;3.706;2023-02-08T15:14:27;2.38;;;2.00;;
56045;SDS011;41913;51.030;3.706;2023-02-08T15:16:55;2.60;;;1.92;;
56045;SDS011;41913;51.030;3.706;2023-02-08T15:19:23;3.85;;;1.92;;
56045;SDS011;41913;51.030;3.706;2023-02-08T15:21:53;4.35;;;1.50;;
56045;SDS011;41913;51.030;3.706;2023-02-08T15:24:20;6.80;;;1.95;;
56045;SDS011;41913;51.030;3.706;2023-02-08T15:26:48;2.80;;;1.52;;
56045;SDS011;41913;51.030;3.706;2023-02-08T15:31:44;2.47;;;1.80;;
56045;SDS011;41913;51.030;3.706;2023-02-08T15:34:11;2.28;;;1.27;;
56045;SDS011;41913;51.030;3.706;2023-02-08T15:36:37;4.03;;;1.58;;
56045;SDS011;41913;51.030;3.706;2023-02-08T15:39:18;1.55;;;1.45;;
56045;SDS011;41913;51.030;3.706;2023-02-08T15:41:57;6.28;;;1.40;;
56045;SDS011;41913;51.030;3.706;2023-02-08T15:44:24;2.80;;;1.58;;
56045;SDS011;41913;51.030;3.706;2023-02-08T15:46:54;3.42;;;1.50;;
56045;SDS011;41913;51.030;3.706;2023-02-08T15:49:30;2.75;;;1.30;;
56045;SDS011;41913;51.030;3.706;2023-02-08T15:52:02;3.17;;;1.50;;
56045;SDS011;41913;51.030;3.706;2023-02-08T15:54:29;2.47;;;1.80;;
56045;SDS011;41913;51.030;3.706;2023-02-08T15:56:56;1.48;;;1.38;;
56045;SDS011;41913;51.030;3.706;2023-02-08T15:59:32;1.52;;;1.40;;
56045;SDS011;41913;51.030;3.706;2023-02-08T16:02:20;1.75;;;1.10;;
56045;SDS011;41913;51.030;3.706;2023-02-08T16:04:57;1.30;;;0.98;;
56045;SDS011;41913;51.030;3.706;2023-02-08T16:07:26;2.90;;;1.25;;
56045;SDS011;41913;51.030;3.706;2023-02-08T16:09:57;1.35;;;1.25;;
56045;SDS011;41913;51.030;3.706;2023-02-08T16:12:25;3.65;;;1.10;;
56045;SDS011;41913;51.030;3.706;2023-02-08T16:14:52;0.95;;;0.95;;
56045;SDS011;41913;51.030;3.706;2023-02-08T16:25:50;3.20;;;1.40;;
56045;SDS011;41913;51.030;3.706;2023-02-08T16:30:57;1.15;;;1.08;;
56045;SDS011;41913;51.030;3.706;2023-02-08T16:33:25;1.30;;;1.10;;
56045;SDS011;41913;51.030;3.706;2023-02-08T16:35:51;1.40;;;1.30;;
56045;SDS011;41913;51.030;3.706;2023-02-08T16:38:27;1.13;;;1.10;;
56045;SDS011;41913;51.030;3.706;2023-02-08T16:40:55;1.80;;;1.25;;
56045;SDS011;41913;51.030;3.706;2023-02-08T16:43:36;2.20;;;1.30;;
56045;SDS011;41913;51.030;3.706;2023-02-08T16:48:47;1.13;;;1.02;;
56045;SDS011;41913;51.030;3.706;2023-02-08T16:51:19;0.90;;;0.90;;
56045;SDS011;41913;51.030;3.706;2023-02-08T16:53:49;20.00;;;3.55;;
56045;SDS011;41913;51.030;3.706;2023-02-08T16:56:17;13.43;;;2.85;;
56045;SDS011;41913;51.030;3.706;2023-02-08T16:58:43;6.88;;;2.20;;
56045;SDS011;41913;51.030;3.706;2023-02-08T17:01:10;3.47;;;1.65;;
56045;SDS011;41913;51.030;3.706;2023-02-08T17:03:39;1.30;;;1.20;;
56045;SDS011;41913;51.030;3.706;2023-02-08T17:06:05;5.38;;;2.45;;
56045;SDS011;41913;51.030;3.706;2023-02-08T17:08:31;4.60;;;1.80;;
56045;SDS011;41913;51.030;3.706;2023-02-08T17:10:59;2.35;;;1.50;;
56045;SDS011;41913;51.030;3.706;2023-02-08T17:13:26;6.75;;;1.98;;
56045;SDS011;41913;51.030;3.706;2023-02-08T17:15:52;2.00;;;1.83;;
56045;SDS011;41913;51.030;3.706;2023-02-08T17:18:19;2.13;;;1.90;;
56045;SDS011;41913;51.030;3.706;2023-02-08T17:20:45;1.90;;;1.60;;
56045;SDS011;41913;51.030;3.706;2023-02-08T17:23:17;3.83;;;1.50;;
56045;SDS011;41913;51.030;3.706;2023-02-08T17:25:43;1.00;;;1.00;;
56045;SDS011;41913;51.030;3.706;2023-02-08T17:28:13;11.10;;;1.73;;
56045;SDS011;41913;51.030;3.706;2023-02-08T17:30:43;1.75;;;1.65;;
56045;SDS011;41913;51.030;3.706;2023-02-08T17:33:10;3.15;;;1.88;;
56045;SDS011;41913;51.030;3.706;2023-02-08T17:38:08;4.93;;;2.85;;
56045;SDS011;41913;51.030;3.706;2023-02-08T17:40:35;3.17;;;2.33;;
56045;SDS011;41913;51.030;3.706;2023-02-08T17:43:01;3.75;;;2.80;;
56045;SDS011;41913;51.030;3.706;2023-02-08T17:45:28;3.08;;;2.70;;
56045;SDS011;41913;51.030;3.706;2023-02-08T17:47:54;8.43;;;3.22;;
56045;SDS011;41913;51.030;3.706;2023-02-08T17:50:23;9.50;;;3.38;;
56045;SDS011;41913;51.030;3.706;2023-02-08T17:52:49;7.57;;;3.25;;
56045;SDS011;41913;51.030;3.706;2023-02-08T17:55:15;8.77;;;4.63;;
56045;SDS011;41913;51.030;3.706;2023-02-08T17:57:42;7.53;;;3.38;;
56045;SDS011;41913;51.030;3.706;2023-02-08T18:00:13;7.47;;;3.78;;
56045;SDS011;41913;51.030;3.706;2023-02-08T18:02:41;10.48;;;4.95;;
56045;SDS011;41913;51.030;3.706;2023-02-08T18:05:12;6.45;;;3.72;;
56045;SDS011;41913;51.030;3.706;2023-02-08T18:07:43;10.48;;;3.90;;
56045;SDS011;41913;51.030;3.706;2023-02-08T18:10:10;16.30;;;3.63;;
56045;SDS011;41913;51.030;3.706;2023-02-08T18:12:40;12.23;;;4.32;;
56045;SDS011;41913;51.030;3.706;2023-02-08T18:15:08;6.85;;;3.20;;
56045;SDS011;41913;51.030;3.706;2023-02-08T18:17:37;10.70;;;3.90;;
56045;SDS011;41913;51.030;3.706;2023-02-08T18:20:03;12.55;;;4.50;;
56045;SDS011;41913;51.030;3.706;2023-02-08T18:22:30;9.25;;;3.35;;
56045;SDS011;41913;51.030;3.706;2023-02-08T18:24:57;13.63;;;4.25;;
56045;SDS011;41913;51.030;3.706;2023-02-08T18:27:25;11.80;;;3.97;;
56045;SDS011;41913;51.030;3.706;2023-02-08T18:29:54;11.27;;;4.60;;